sensor_id;sensor_type;location;lat;lon;timestamp;pressure;altitude;pressure_sealevel;temperature;humidity
40794;BME280;26502;51.886;15.604;2023-05-20T00:04:31;101707.98;;;12.49;65.78
40794;BME280;26502;51.886;15.604;2023-05-20T00:09:38;101707.65;;;12.48;65.82
40794;BME280;26502;51.886;15.604;2023-05-20T00:14:44;101702.66;;;12.41;65.73
40794;BME280;26502;51.886;15.604;2023-05-20T00:19:50;101704.23;;;12.41;66.04
40794;BME280;26502;51.886;15.604;2023-05-20T00:24:56;101707.05;;;12.43;66.11
40794;BME280;26502;51.886;15.604;2023-05-20T00:30:02;101699.14;;;12.38;66.19
40794;BME280;26502;51.886;15.604;2023-05-20T00:35:10;101700.50;;;12.34;66.36
40794;BME280;26502;51.886;15.604;2023-05-20T00:40:17;101700.91;;;12.31;66.36
40794;BME280;26502;51.886;15.604;2023-05-20T00:45:24;101700.16;;;12.33;66.52
40794;BME280;26502;51.886;15.604;2023-05-20T00:50:31;101699.45;;;12.33;66.74
40794;BME280;26502;51.886;15.604;2023-05-20T00:55:38;101695.88;;;12.33;66.78
40794;BME280;26502;51.886;15.604;2023-05-20T01:00:46;101693.80;;;12.30;66.85
40794;BME280;26502;51.886;15.604;2023-05-20T01:05:53;101687.58;;;12.30;67.11
40794;BME280;26502;51.886;15.604;2023-05-20T01:11:05;101690.41;;;12.31;66.90
40794;BME280;26502;51.886;15.604;2023-05-20T01:16:13;101700.33;;;12.26;67.16
40794;BME280;26502;51.886;15.604;2023-05-20T01:21:22;101701.86;;;12.29;67.26
40794;BME280;26502;51.886;15.604;2023-05-20T01:26:28;101700.57;;;12.31;67.33
40794;BME280;26502;51.886;15.604;2023-05-20T01:31:37;101699.21;;;12.28;67.43
40794;BME280;26502;51.886;15.604;2023-05-20T01:36:45;101691.73;;;12.28;67.47
40794;BME280;26502;51.886;15.604;2023-05-20T01:41:51;101689.13;;;12.25;67.64
40794;BME280;26502;51.886;15.604;2023-05-20T01:46:58;101684.73;;;12.23;67.79
40794;BME280;26502;51.886;15.604;2023-05-20T01:52:06;101682.48;;;12.20;67.70
40794;BME280;26502;51.886;15.604;2023-05-20T01:57:12;101676.04;;;12.21;67.68
40794;BME280;26502;51.886;15.604;2023-05-20T02:02:18;101681.73;;;12.21;67.93
40794;BME280;26502;51.886;15.604;2023-05-20T02:07:24;101685.20;;;12.17;68.03
40794;BME280;26502;51.886;15.604;2023-05-20T02:12:30;101680.91;;;12.18;68.04
40794;BME280;26502;51.886;15.604;2023-05-20T02:17:35;101683.59;;;12.17;68.26
40794;BME280;26502;51.886;15.604;2023-05-20T02:22:41;101682.69;;;12.19;68.19
40794;BME280;26502;51.886;15.604;2023-05-20T02:27:48;101686.63;;;12.17;68.42
40794;BME280;26502;51.886;15.604;2023-05-20T02:32:54;101689.14;;;12.16;68.51
40794;BME280;26502;51.886;15.604;2023-05-20T02:38:01;101686.30;;;12.16;68.59
40794;BME280;26502;51.886;15.604;2023-05-20T02:43:07;101691.52;;;12.14;68.56
40794;BME280;26502;51.886;15.604;2023-05-20T02:48:13;101692.69;;;12.10;68.72
40794;BME280;26502;51.886;15.604;2023-05-20T02:53:19;101693.52;;;12.12;68.88
40794;BME280;26502;51.886;15.604;2023-05-20T02:58:25;101694.71;;;12.14;68.87
40794;BME280;26502;51.886;15.604;2023-05-20T03:03:33;101697.69;;;12.16;68.83
40794;BME280;26502;51.886;15.604;2023-05-20T03:08:42;101701.51;;;12.13;68.88
40794;BME280;26502;51.886;15.604;2023-05-20T03:13:48;101700.63;;;12.13;69.11
40794;BME280;26502;51.886;15.604;2023-05-20T03:18:54;101697.36;;;12.15;69.17
40794;BME280;26502;51.886;15.604;2023-05-20T03:24:01;101698.70;;;12.11;69.25
40794;BME280;26502;51.886;15.604;2023-05-20T03:29:08;101689.98;;;12.11;69.24
40794;BME280;26502;51.886;15.604;2023-05-20T03:34:14;101693.81;;;12.07;69.27
40794;BME280;26502;51.886;15.604;2023-05-20T03:39:22;101699.52;;;12.07;69.46
40794;BME280;26502;51.886;15.604;2023-05-20T03:44:28;101703.41;;;12.07;69.68
40794;BME280;26502;51.886;15.604;2023-05-20T03:49:34;101708.41;;;12.07;69.70
40794;BME280;26502;51.886;15.604;2023-05-20T03:54:40;101712.71;;;12.06;69.84
40794;BME280;26502;51.886;15.604;2023-05-20T03:59:46;101717.39;;;12.04;69.84
40794;BME280;26502;51.886;15.604;2023-05-20T04:04:53;101714.92;;;12.02;69.98
40794;BME280;26502;51.886;15.604;2023-05-20T04:10:00;101715.71;;;11.98;70.21
40794;BME280;26502;51.886;15.604;2023-05-20T04:15:09;101715.73;;;11.98;70.29
40794;BME280;26502;51.886;15.604;2023-05-20T04:20:25;101710.30;;;12.03;70.45
40794;BME280;26502;51.886;15.604;2023-05-20T04:25:33;101713.02;;;12.08;70.54
40794;BME280;26502;51.886;15.604;2023-05-20T04:30:39;101710.27;;;12.12;70.51
40794;BME280;26502;51.886;15.604;2023-05-20T04:35:45;101709.96;;;12.17;70.61
40794;BME280;26502;51.886;15.604;2023-05-20T04:40:52;101707.13;;;12.17;70.61
40794;BME280;26502;51.886;15.604;2023-05-20T04:45:58;101706.67;;;12.20;70.74
40794;BME280;26502;51.886;15.604;2023-05-20T04:51:09;101706.27;;;12.23;70.82
40794;BME280;26502;51.886;15.604;2023-05-20T04:56:15;101707.55;;;12.29;70.77
40794;BME280;26502;51.886;15.604;2023-05-20T05:01:21;101708.44;;;12.37;71.04
40794;BME280;26502;51.886;15.604;2023-05-20T05:06:28;101713.83;;;12.43;70.91
40794;BME280;26502;51.886;15.604;2023-05-20T05:11:36;101714.35;;;12.43;70.91
40794;BME280;26502;51.886;15.604;2023-05-20T05:16:42;101715.16;;;12.46;71.14
40794;BME280;26502;51.886;15.604;2023-05-20T05:21:49;101713.04;;;12.53;71.07
40794;BME280;26502;51.886;15.604;2023-05-20T05:26:55;101715.84;;;12.63;71.17
40794;BME280;26502;51.886;15.604;2023-05-20T05:32:02;101722.20;;;12.65;71.01
40794;BME280;26502;51.886;15.604;2023-05-20T05:37:07;101720.95;;;12.73;71.21
40794;BME280;26502;51.886;15.604;2023-05-20T05:42:14;101723.67;;;12.78;71.12
40794;BME280;26502;51.886;15.604;2023-05-20T05:47:21;101720.20;;;12.81;71.03
40794;BME280;26502;51.886;15.604;2023-05-20T05:52:27;101714.10;;;12.76;71.22
40794;BME280;26502;51.886;15.604;2023-05-20T05:57:33;101720.05;;;12.80;71.30
40794;BME280;26502;51.886;15.604;2023-05-20T06:02:39;101721.63;;;12.88;71.39
40794;BME280;26502;51.886;15.604;2023-05-20T06:07:47;101717.45;;;12.91;71.31
40794;BME280;26502;51.886;15.604;2023-05-20T06:12:53;101711.15;;;13.00;71.30
40794;BME280;26502;51.886;15.604;2023-05-20T06:17:59;101706.20;;;12.99;71.30
40794;BME280;26502;51.886;15.604;2023-05-20T06:23:05;101703.93;;;12.97;71.34
40794;BME280;26502;51.886;15.604;2023-05-20T06:28:23;101702.11;;;12.98;71.36
40794;BME280;26502;51.886;15.604;2023-05-20T06:33:29;101699.16;;;13.02;71.45
40794;BME280;26502;51.886;15.604;2023-05-20T06:38:38;101704.02;;;13.08;71.22
40794;BME280;26502;51.886;15.604;2023-05-20T06:43:45;101704.81;;;13.04;71.46
40794;BME280;26502;51.886;15.604;2023-05-20T06:49:30;101699.41;;;13.13;71.37
40794;BME280;26502;51.886;15.604;2023-05-20T06:54:36;101694.95;;;13.20;71.36
40794;BME280;26502;51.886;15.604;2023-05-20T06:59:44;101691.20;;;13.26;71.39
40794;BME280;26502;51.886;15.604;2023-05-20T07:04:51;101695.20;;;13.30;71.34
40794;BME280;26502;51.886;15.604;2023-05-20T07:09:58;101689.00;;;13.36;71.33
40794;BME280;26502;51.886;15.604;2023-05-20T07:15:07;101691.42;;;13.39;71.33
40794;BME280;26502;51.886;15.604;2023-05-20T07:20:13;101694.50;;;13.37;71.08
40794;BME280;26502;51.886;15.604;2023-05-20T07:25:20;101685.54;;;13.45;71.22
40794;BME280;26502;51.886;15.604;2023-05-20T07:30:26;101686.55;;;13.53;71.28
40794;BME280;26502;51.886;15.604;2023-05-20T07:35:48;101680.57;;;13.63;71.18
40794;BME280;26502;51.886;15.604;2023-05-20T07:40:56;101677.20;;;13.68;71.10
40794;BME280;26502;51.886;15.604;2023-05-20T07:46:02;101674.61;;;13.65;71.12
40794;BME280;26502;51.886;15.604;2023-05-20T07:51:08;101675.03;;;13.69;71.13
40794;BME280;26502;51.886;15.604;2023-05-20T07:56:16;101678.88;;;13.72;70.93
40794;BME280;26502;51.886;15.604;2023-05-20T08:01:22;101670.52;;;13.59;70.88
40794;BME280;26502;51.886;15.604;2023-05-20T08:06:29;101674.70;;;13.56;71.02
40794;BME280;26502;51.886;15.604;2023-05-20T08:11:35;101674.15;;;13.63;71.02
40794;BME280;26502;51.886;15.604;2023-05-20T08:16:42;101678.32;;;13.66;70.97
40794;BME280;26502;51.886;15.604;2023-05-20T08:21:48;101676.35;;;13.73;71.12
40794;BME280;26502;51.886;15.604;2023-05-20T08:26:54;101677.58;;;13.86;70.98
40794;BME280;26502;51.886;15.604;2023-05-20T08:32:02;101671.33;;;13.91;70.65
40794;BME280;26502;51.886;15.604;2023-05-20T08:37:09;101659.42;;;14.01;70.84
40794;BME280;26502;51.886;15.604;2023-05-20T08:42:18;101652.13;;;14.12;70.69
40794;BME280;26502;51.886;15.604;2023-05-20T08:47:26;101653.65;;;14.08;70.70
40794;BME280;26502;51.886;15.604;2023-05-20T08:52:34;101660.55;;;14.05;70.51
40794;BME280;26502;51.886;15.604;2023-05-20T08:57:42;101664.71;;;14.03;70.56
40794;BME280;26502;51.886;15.604;2023-05-20T09:02:51;101665.82;;;14.14;70.68
40794;BME280;26502;51.886;15.604;2023-05-20T09:08:06;101663.90;;;14.24;70.52
40794;BME280;26502;51.886;15.604;2023-05-20T09:13:13;101654.68;;;14.21;70.42
40794;BME280;26502;51.886;15.604;2023-05-20T09:18:19;101657.02;;;14.26;70.29
40794;BME280;26502;51.886;15.604;2023-05-20T09:23:25;101660.76;;;14.33;70.17
40794;BME280;26502;51.886;15.604;2023-05-20T09:28:31;101658.34;;;14.41;70.17
40794;BME280;26502;51.886;15.604;2023-05-20T09:33:39;101652.55;;;14.48;70.05
40794;BME280;26502;51.886;15.604;2023-05-20T09:38:45;101649.18;;;14.53;70.07
40794;BME280;26502;51.886;15.604;2023-05-20T09:43:52;101647.48;;;14.61;69.84
40794;BME280;26502;51.886;15.604;2023-05-20T09:48:59;101647.48;;;14.67;69.77
40794;BME280;26502;51.886;15.604;2023-05-20T09:54:05;101643.21;;;14.82;69.74
40794;BME280;26502;51.886;15.604;2023-05-20T09:59:14;101635.63;;;14.89;69.52
40794;BME280;26502;51.886;15.604;2023-05-20T10:04:20;101628.98;;;14.90;69.49
40794;BME280;26502;51.886;15.604;2023-05-20T10:09:50;101631.48;;;15.05;69.61
40794;BME280;26502;51.886;15.604;2023-05-20T10:15:06;101626.74;;;15.28;69.21
40794;BME280;26502;51.886;15.604;2023-05-20T10:20:15;101624.61;;;15.37;69.08
40794;BME280;26502;51.886;15.604;2023-05-20T10:25:26;101621.91;;;15.37;68.61
40794;BME280;26502;51.886;15.604;2023-05-20T10:30:32;101614.94;;;15.47;68.54
40794;BME280;26502;51.886;15.604;2023-05-20T10:35:49;101602.52;;;15.62;68.26
40794;BME280;26502;51.886;15.604;2023-05-20T10:40:55;101598.41;;;15.76;68.18
40794;BME280;26502;51.886;15.604;2023-05-20T10:46:18;101599.65;;;15.91;67.97
40794;BME280;26502;51.886;15.604;2023-05-20T10:51:24;101604.17;;;15.90;67.74
40794;BME280;26502;51.886;15.604;2023-05-20T10:56:32;101599.61;;;15.96;67.55
40794;BME280;26502;51.886;15.604;2023-05-20T11:01:38;101597.31;;;16.18;67.66
40794;BME280;26502;51.886;15.604;2023-05-20T11:06:51;101583.41;;;16.50;67.42
40794;BME280;26502;51.886;15.604;2023-05-20T11:11:59;101579.92;;;16.69;67.02
40794;BME280;26502;51.886;15.604;2023-05-20T11:17:08;101579.26;;;16.68;66.53
40794;BME280;26502;51.886;15.604;2023-05-20T11:22:14;101569.06;;;16.67;66.37
40794;BME280;26502;51.886;15.604;2023-05-20T11:27:20;101571.38;;;16.75;66.20
40794;BME280;26502;51.886;15.604;2023-05-20T11:32:26;101569.52;;;16.93;65.81
40794;BME280;26502;51.886;15.604;2023-05-20T11:37:32;101565.33;;;17.03;65.43
40794;BME280;26502;51.886;15.604;2023-05-20T11:42:44;101560.86;;;17.06;65.17
40794;BME280;26502;51.886;15.604;2023-05-20T11:48:00;101556.28;;;17.28;65.10
40794;BME280;26502;51.886;15.604;2023-05-20T11:53:08;101556.77;;;17.63;64.93
40794;BME280;26502;51.886;15.604;2023-05-20T11:58:19;101559.61;;;17.98;64.61
40794;BME280;26502;51.886;15.604;2023-05-20T12:03:25;101556.94;;;18.47;64.14
40794;BME280;26502;51.886;15.604;2023-05-20T12:08:31;101555.08;;;18.56;63.46
40794;BME280;26502;51.886;15.604;2023-05-20T12:13:38;101553.50;;;18.37;63.06
40794;BME280;26502;51.886;15.604;2023-05-20T12:18:44;101550.15;;;18.36;62.78
40794;BME280;26502;51.886;15.604;2023-05-20T12:23:50;101545.38;;;18.48;62.58
40794;BME280;26502;51.886;15.604;2023-05-20T12:29:01;101536.27;;;18.89;62.22
40794;BME280;26502;51.886;15.604;2023-05-20T12:34:07;101527.11;;;19.21;61.64
40794;BME280;26502;51.886;15.604;2023-05-20T12:39:13;101514.38;;;19.88;61.56
40794;BME280;26502;51.886;15.604;2023-05-20T12:44:21;101507.80;;;20.59;60.66
40794;BME280;26502;51.886;15.604;2023-05-20T12:49:26;101497.20;;;20.55;59.42
40794;BME280;26502;51.886;15.604;2023-05-20T12:54:32;101493.54;;;20.41;59.13
40794;BME280;26502;51.886;15.604;2023-05-20T12:59:38;101485.73;;;20.66;58.96
40794;BME280;26502;51.886;15.604;2023-05-20T13:04:44;101477.21;;;21.35;58.64
40794;BME280;26502;51.886;15.604;2023-05-20T13:09:50;101474.48;;;21.74;57.51
40794;BME280;26502;51.886;15.604;2023-05-20T13:14:56;101468.69;;;21.30;56.70
40794;BME280;26502;51.886;15.604;2023-05-20T13:20:02;101458.30;;;21.12;56.78
40794;BME280;26502;51.886;15.604;2023-05-20T13:25:09;101455.69;;;21.36;55.64
40794;BME280;26502;51.886;15.604;2023-05-20T13:30:15;101445.21;;;21.36;55.49
40794;BME280;26502;51.886;15.604;2023-05-20T13:35:21;101441.14;;;21.54;55.19
40794;BME280;26502;51.886;15.604;2023-05-20T13:40:27;101439.61;;;21.61;54.84
40794;BME280;26502;51.886;15.604;2023-05-20T13:45:33;101442.55;;;21.98;54.72
40794;BME280;26502;51.886;15.604;2023-05-20T13:50:39;101445.53;;;22.07;54.25
40794;BME280;26502;51.886;15.604;2023-05-20T13:55:45;101448.69;;;22.32;53.49
40794;BME280;26502;51.886;15.604;2023-05-20T14:00:50;101444.36;;;22.13;52.74
40794;BME280;26502;51.886;15.604;2023-05-20T14:05:57;101437.98;;;22.14;52.92
40794;BME280;26502;51.886;15.604;2023-05-20T14:11:04;101428.73;;;22.28;52.85
40794;BME280;26502;51.886;15.604;2023-05-20T14:16:10;101420.06;;;22.51;52.49
40794;BME280;26502;51.886;15.604;2023-05-20T14:21:15;101415.79;;;22.39;52.37
40794;BME280;26502;51.886;15.604;2023-05-20T14:26:22;101416.51;;;22.45;52.10
40794;BME280;26502;51.886;15.604;2023-05-20T14:31:28;101405.77;;;22.61;51.84
40794;BME280;26502;51.886;15.604;2023-05-20T14:36:34;101401.77;;;22.46;51.34
40794;BME280;26502;51.886;15.604;2023-05-20T14:41:41;101390.83;;;22.60;51.34
40794;BME280;26502;51.886;15.604;2023-05-20T14:46:47;101391.05;;;22.62;51.34
40794;BME280;26502;51.886;15.604;2023-05-20T14:51:53;101385.70;;;22.81;51.27
40794;BME280;26502;51.886;15.604;2023-05-20T14:57:00;101384.21;;;22.73;50.85
40794;BME280;26502;51.886;15.604;2023-05-20T15:02:05;101383.50;;;22.51;50.76
40794;BME280;26502;51.886;15.604;2023-05-20T15:07:12;101377.50;;;22.69;50.95
40794;BME280;26502;51.886;15.604;2023-05-20T15:12:17;101371.80;;;22.95;51.01
40794;BME280;26502;51.886;15.604;2023-05-20T15:17:23;101363.58;;;23.04;50.31
40794;BME280;26502;51.886;15.604;2023-05-20T15:22:30;101363.14;;;23.02;50.09
40794;BME280;26502;51.886;15.604;2023-05-20T15:27:36;101355.50;;;22.80;49.95
40794;BME280;26502;51.886;15.604;2023-05-20T15:32:42;101348.41;;;22.83;49.84
40794;BME280;26502;51.886;15.604;2023-05-20T15:37:48;101336.92;;;23.04;49.90
40794;BME280;26502;51.886;15.604;2023-05-20T15:42:54;101341.40;;;23.39;49.65
40794;BME280;26502;51.886;15.604;2023-05-20T15:48:00;101341.61;;;23.31;49.44
40794;BME280;26502;51.886;15.604;2023-05-20T15:53:07;101339.61;;;23.19;49.67
40794;BME280;26502;51.886;15.604;2023-05-20T15:58:14;101330.48;;;23.20;49.30
40794;BME280;26502;51.886;15.604;2023-05-20T16:03:20;101336.76;;;22.69;49.17
40794;BME280;26502;51.886;15.604;2023-05-20T16:08:27;101329.81;;;22.29;49.38
40794;BME280;26502;51.886;15.604;2023-05-20T16:13:33;101321.54;;;22.47;49.46
40794;BME280;26502;51.886;15.604;2023-05-20T16:18:39;101310.20;;;22.25;49.77
40794;BME280;26502;51.886;15.604;2023-05-20T16:23:45;101307.23;;;22.24;49.80
40794;BME280;26502;51.886;15.604;2023-05-20T16:28:51;101300.60;;;22.23;49.94
40794;BME280;26502;51.886;15.604;2023-05-20T16:33:56;101303.49;;;22.23;49.92
40794;BME280;26502;51.886;15.604;2023-05-20T16:39:02;101308.23;;;22.07;50.05
40794;BME280;26502;51.886;15.604;2023-05-20T16:44:09;101311.39;;;21.80;49.95
40794;BME280;26502;51.886;15.604;2023-05-20T16:49:15;101311.67;;;21.44;50.20
40794;BME280;26502;51.886;15.604;2023-05-20T16:54:22;101305.42;;;21.27;50.60
40794;BME280;26502;51.886;15.604;2023-05-20T16:59:28;101303.64;;;21.07;50.80
40794;BME280;26502;51.886;15.604;2023-05-20T17:04:34;101300.41;;;20.99;51.07
40794;BME280;26502;51.886;15.604;2023-05-20T17:09:41;101295.37;;;20.85;51.19
40794;BME280;26502;51.886;15.604;2023-05-20T17:14:47;101290.30;;;20.63;51.47
40794;BME280;26502;51.886;15.604;2023-05-20T17:19:52;101294.03;;;20.55;51.94
40794;BME280;26502;51.886;15.604;2023-05-20T17:24:58;101291.91;;;20.49;52.18
40794;BME280;26502;51.886;15.604;2023-05-20T17:30:06;101292.32;;;20.40;52.37
40794;BME280;26502;51.886;15.604;2023-05-20T17:35:12;101296.22;;;20.27;52.70
40794;BME280;26502;51.886;15.604;2023-05-20T17:40:18;101297.00;;;20.23;53.04
40794;BME280;26502;51.886;15.604;2023-05-20T17:45:24;101295.36;;;20.14;53.40
40794;BME280;26502;51.886;15.604;2023-05-20T17:50:31;101299.88;;;20.12;53.67
40794;BME280;26502;51.886;15.604;2023-05-20T17:55:37;101298.94;;;19.97;53.80
40794;BME280;26502;51.886;15.604;2023-05-20T18:00:43;101295.79;;;19.90;54.17
40794;BME280;26502;51.886;15.604;2023-05-20T18:05:49;101290.15;;;19.79;54.43
40794;BME280;26502;51.886;15.604;2023-05-20T18:10:55;101286.33;;;19.71;54.80
40794;BME280;26502;51.886;15.604;2023-05-20T18:16:01;101286.42;;;19.63;54.87
40794;BME280;26502;51.886;15.604;2023-05-20T18:21:07;101284.74;;;19.52;55.35
40794;BME280;26502;51.886;15.604;2023-05-20T18:26:13;101278.89;;;19.32;55.66
40794;BME280;26502;51.886;15.604;2023-05-20T18:31:19;101279.44;;;19.14;55.93
40794;BME280;26502;51.886;15.604;2023-05-20T18:36:25;101281.89;;;19.00;56.21
40794;BME280;26502;51.886;15.604;2023-05-20T18:41:32;101288.64;;;18.85;56.49
40794;BME280;26502;51.886;15.604;2023-05-20T18:46:38;101294.76;;;18.63;56.75
40794;BME280;26502;51.886;15.604;2023-05-20T18:51:44;101295.52;;;18.43;57.22
40794;BME280;26502;51.886;15.604;2023-05-20T18:56:51;101293.20;;;18.26;57.33
40794;BME280;26502;51.886;15.604;2023-05-20T19:01:57;101292.23;;;18.11;57.62
40794;BME280;26502;51.886;15.604;2023-05-20T19:07:03;101288.10;;;18.01;58.01
40794;BME280;26502;51.886;15.604;2023-05-20T19:12:09;101286.66;;;17.87;58.33
40794;BME280;26502;51.886;15.604;2023-05-20T19:17:15;101286.38;;;17.72;58.49
40794;BME280;26502;51.886;15.604;2023-05-20T19:22:21;101289.73;;;17.56;58.55
40794;BME280;26502;51.886;15.604;2023-05-20T19:27:28;101294.86;;;17.43;58.77
40794;BME280;26502;51.886;15.604;2023-05-20T19:32:34;101295.53;;;17.30;58.85
40794;BME280;26502;51.886;15.604;2023-05-20T19:37:39;101299.12;;;17.16;59.12
40794;BME280;26502;51.886;15.604;2023-05-20T19:42:45;101292.84;;;17.02;59.41
40794;BME280;26502;51.886;15.604;2023-05-20T19:47:52;101291.05;;;16.90;59.36
40794;BME280;26502;51.886;15.604;2023-05-20T19:52:58;101293.48;;;16.80;59.41
40794;BME280;26502;51.886;15.604;2023-05-20T19:58:06;101296.89;;;16.69;59.70
40794;BME280;26502;51.886;15.604;2023-05-20T20:03:12;101299.42;;;16.54;59.77
40794;BME280;26502;51.886;15.604;2023-05-20T20:08:18;101295.36;;;16.41;59.88
40794;BME280;26502;51.886;15.604;2023-05-20T20:13:24;101293.58;;;16.29;59.94
40794;BME280;26502;51.886;15.604;2023-05-20T20:18:30;101289.48;;;16.17;60.33
40794;BME280;26502;51.886;15.604;2023-05-20T20:23:36;101282.00;;;16.04;60.37
40794;BME280;26502;51.886;15.604;2023-05-20T20:28:42;101280.42;;;15.95;60.53
40794;BME280;26502;51.886;15.604;2023-05-20T20:33:48;101281.92;;;15.82;60.79
40794;BME280;26502;51.886;15.604;2023-05-20T20:38:54;101279.95;;;15.73;60.96
40794;BME280;26502;51.886;15.604;2023-05-20T20:44:00;101280.27;;;15.66;61.16
40794;BME280;26502;51.886;15.604;2023-05-20T20:49:08;101285.11;;;15.61;61.25
40794;BME280;26502;51.886;15.604;2023-05-20T20:54:14;101282.92;;;15.54;61.62
40794;BME280;26502;51.886;15.604;2023-05-20T20:59:20;101281.89;;;15.49;61.73
40794;BME280;26502;51.886;15.604;2023-05-20T21:04:30;101285.79;;;15.34;61.91
40794;BME280;26502;51.886;15.604;2023-05-20T21:09:36;101283.61;;;15.21;62.10
40794;BME280;26502;51.886;15.604;2023-05-20T21:14:42;101274.73;;;15.12;62.28
40794;BME280;26502;51.886;15.604;2023-05-20T21:19:47;101269.98;;;14.97;62.49
40794;BME280;26502;51.886;15.604;2023-05-20T21:24:55;101260.13;;;14.92;62.61
40794;BME280;26502;51.886;15.604;2023-05-20T21:30:01;101256.23;;;14.87;62.61
40794;BME280;26502;51.886;15.604;2023-05-20T21:35:09;101252.35;;;14.77;62.91
40794;BME280;26502;51.886;15.604;2023-05-20T21:40:15;101254.14;;;14.68;63.05
40794;BME280;26502;51.886;15.604;2023-05-20T21:45:20;101253.04;;;14.64;63.14
40794;BME280;26502;51.886;15.604;2023-05-20T21:50:26;101255.05;;;14.54;63.18
40794;BME280;26502;51.886;15.604;2023-05-20T21:55:32;101249.44;;;14.42;63.50
40794;BME280;26502;51.886;15.604;2023-05-20T22:00:38;101242.64;;;14.37;63.63
40794;BME280;26502;51.886;15.604;2023-05-20T22:05:45;101239.89;;;14.34;63.68
40794;BME280;26502;51.886;15.604;2023-05-20T22:10:51;101234.10;;;14.23;63.55
40794;BME280;26502;51.886;15.604;2023-05-20T22:15:58;101237.56;;;14.11;63.86
40794;BME280;26502;51.886;15.604;2023-05-20T22:21:05;101238.42;;;14.03;64.10
40794;BME280;26502;51.886;15.604;2023-05-20T22:26:11;101233.02;;;14.00;64.53
40794;BME280;26502;51.886;15.604;2023-05-20T22:31:16;101226.05;;;13.99;64.65
40794;BME280;26502;51.886;15.604;2023-05-20T22:36:22;101224.38;;;13.97;65.08
40794;BME280;26502;51.886;15.604;2023-05-20T22:41:29;101221.09;;;13.94;65.37
40794;BME280;26502;51.886;15.604;2023-05-20T22:46:36;101218.75;;;13.94;65.66
40794;BME280;26502;51.886;15.604;2023-05-20T22:51:41;101210.22;;;13.98;65.93
40794;BME280;26502;51.886;15.604;2023-05-20T22:56:49;101207.27;;;14.01;66.02
40794;BME280;26502;51.886;15.604;2023-05-20T23:02:00;101200.21;;;14.03;66.68
40794;BME280;26502;51.886;15.604;2023-05-20T23:07:06;101196.65;;;14.07;66.93
40794;BME280;26502;51.886;15.604;2023-05-20T23:12:12;101195.08;;;14.11;67.10
40794;BME280;26502;51.886;15.604;2023-05-20T23:17:18;101193.90;;;14.09;67.19
40794;BME280;26502;51.886;15.604;2023-05-20T23:22:24;101193.51;;;14.05;67.26
40794;BME280;26502;51.886;15.604;2023-05-20T23:27:30;101189.92;;;14.06;67.55
40794;BME280;26502;51.886;15.604;2023-05-20T23:32:36;101187.23;;;14.06;67.59
40794;BME280;26502;51.886;15.604;2023-05-20T23:37:43;101192.90;;;14.03;67.78
40794;BME280;26502;51.886;15.604;2023-05-20T23:42:49;101196.81;;;13.98;67.76
40794;BME280;26502;51.886;15.604;2023-05-20T23:47:55;101188.08;;;13.94;68.05
40794;BME280;26502;51.886;15.604;2023-05-20T23:53:01;101186.00;;;13.92;68.24
40794;BME280;26502;51.886;15.604;2023-05-20T23:58:07;101187.72;;;13.89;68.59
